createdAt,value
2017-09-12T00:00:46.252Z,13.10
2017-09-12T00:03:14.540Z,13.00
2017-09-12T00:05:42.851Z,13.00
2017-09-12T00:08:11.745Z,13.00
2017-09-12T00:10:40.050Z,13.10
2017-09-12T00:13:08.444Z,13.00
2017-09-12T00:15:37.667Z,13.10
2017-09-12T00:18:06.480Z,13.10
2017-09-12T00:20:34.776Z,13.10
2017-09-12T00:23:03.061Z,13.00
2017-09-12T00:25:31.412Z,13.00
2017-09-12T00:27:59.885Z,13.10
2017-09-12T00:30:28.205Z,13.10
2017-09-12T00:32:56.495Z,13.10
2017-09-12T00:35:24.833Z,13.00
2017-09-12T00:37:53.148Z,13.00
2017-09-12T00:40:21.520Z,13.00
2017-09-12T00:42:49.834Z,13.00
2017-09-12T00:45:18.148Z,13.00
2017-09-12T00:47:46.462Z,13.00
2017-09-12T00:50:14.754Z,13.00
2017-09-12T00:52:43.101Z,13.00
2017-09-12T00:55:11.385Z,13.00
2017-09-12T00:57:39.687Z,13.00
2017-09-12T01:00:07.992Z,13.00
2017-09-12T01:02:36.277Z,13.00
2017-09-12T01:05:04.640Z,12.90
2017-09-12T01:07:32.930Z,12.90
2017-09-12T01:10:01.215Z,12.90
2017-09-12T01:12:29.696Z,12.80
2017-09-12T01:14:58.051Z,12.70
2017-09-12T01:17:26.342Z,12.80
2017-09-12T01:19:54.695Z,12.70
2017-09-12T01:22:22.978Z,12.70
2017-09-12T01:24:51.311Z,12.60
2017-09-12T01:27:19.598Z,12.60
2017-09-12T01:29:47.962Z,12.60
2017-09-12T01:32:16.244Z,12.60
2017-09-12T01:34:44.814Z,12.50
2017-09-12T01:37:14.094Z,12.60
2017-09-12T01:39:42.389Z,12.60
2017-09-12T01:42:10.714Z,12.60
2017-09-12T01:44:39.013Z,12.60
2017-09-12T01:47:07.385Z,12.50
2017-09-12T01:49:35.785Z,12.50
2017-09-12T01:52:04.071Z,12.40
2017-09-12T01:54:32.425Z,12.40
2017-09-12T01:57:00.710Z,12.40
2017-09-12T01:59:29.071Z,12.30
2017-09-12T02:01:57.355Z,12.30
2017-09-12T02:04:25.685Z,12.30
2017-09-12T02:06:53.999Z,12.30
2017-09-12T02:09:22.746Z,12.40
2017-09-12T02:11:51.071Z,12.30
2017-09-12T02:14:19.392Z,12.40
2017-09-12T02:16:48.589Z,12.40
2017-09-12T02:19:17.625Z,12.40
2017-09-12T02:21:46.542Z,12.40
2017-09-12T02:24:14.901Z,12.50
2017-09-12T02:26:43.326Z,12.50
2017-09-12T02:29:11.634Z,12.50
2017-09-12T02:31:39.963Z,12.50
2017-09-12T02:34:08.291Z,12.50
2017-09-12T02:36:36.574Z,12.50
2017-09-12T02:39:04.869Z,12.50
2017-09-12T02:41:33.356Z,12.40
2017-09-12T02:44:02.192Z,12.40
2017-09-12T02:46:30.514Z,12.40
2017-09-12T02:48:58.809Z,12.40
2017-09-12T02:51:27.107Z,12.40
2017-09-12T02:53:55.429Z,12.30
2017-09-12T02:56:23.717Z,12.30
2017-09-12T02:58:52.002Z,12.30
2017-09-12T03:01:20.316Z,12.20
2017-09-12T03:03:48.607Z,12.20
2017-09-12T03:06:16.933Z,12.20
2017-09-12T03:08:45.301Z,12.20
2017-09-12T03:11:13.599Z,12.20
2017-09-12T03:13:41.915Z,12.20
2017-09-12T03:16:10.251Z,12.20
2017-09-12T03:18:38.535Z,12.10
2017-09-12T03:21:06.849Z,12.10
2017-09-12T03:23:35.169Z,12.10
2017-09-12T03:26:03.458Z,12.10
2017-09-12T03:28:31.801Z,12.10
2017-09-12T03:31:00.142Z,12.20
2017-09-12T03:33:28.468Z,12.20
2017-09-12T03:35:56.865Z,12.20
2017-09-12T03:38:25.144Z,12.10
2017-09-12T03:40:53.462Z,12.10
2017-09-12T03:43:21.781Z,12.20
2017-09-12T03:45:50.069Z,12.10
2017-09-12T03:48:18.372Z,12.00
2017-09-12T03:50:46.855Z,12.00
2017-09-12T03:53:15.174Z,12.00
2017-09-12T03:55:43.491Z,12.00
2017-09-12T03:58:11.781Z,12.00
2017-09-12T04:00:40.092Z,12.00
2017-09-12T04:03:08.571Z,12.00
2017-09-12T04:05:36.854Z,12.00
2017-09-12T04:08:05.140Z,12.00
2017-09-12T04:10:33.541Z,12.00
2017-09-12T04:13:02.447Z,12.10
2017-09-12T04:15:31.481Z,12.10
2017-09-12T04:17:59.796Z,12.10
2017-09-12T04:20:28.324Z,12.10
2017-09-12T04:22:56.617Z,12.10
2017-09-12T04:25:26.081Z,12.10
2017-09-12T04:27:54.393Z,12.10
2017-09-12T04:30:22.737Z,12.10
2017-09-12T04:32:51.054Z,12.00
2017-09-12T04:35:19.366Z,12.10
2017-09-12T04:37:47.655Z,12.00
2017-09-12T04:40:15.968Z,12.10
2017-09-12T04:42:44.279Z,12.10
2017-09-12T04:45:12.594Z,12.10
2017-09-12T04:47:40.917Z,12.10
2017-09-12T04:50:09.241Z,12.10
2017-09-12T04:52:37.534Z,12.10
2017-09-12T04:55:05.874Z,12.00
2017-09-12T04:57:34.208Z,12.00
2017-09-12T05:00:02.505Z,12.00
2017-09-12T05:02:31.672Z,12.10
2017-09-12T05:04:59.968Z,12.10
2017-09-12T05:07:28.261Z,12.10
2017-09-12T05:09:56.594Z,12.10
2017-09-12T05:12:24.879Z,12.10
2017-09-12T05:14:53.191Z,12.10
2017-09-12T05:17:21.508Z,12.20
2017-09-12T05:19:49.790Z,12.20
2017-09-12T05:22:18.102Z,12.20
2017-09-12T05:24:50.234Z,12.30
2017-09-12T05:27:18.545Z,12.30
2017-09-12T05:29:46.841Z,12.30
2017-09-12T05:32:15.162Z,12.30
2017-09-12T05:34:43.476Z,12.30
2017-09-12T05:37:11.792Z,12.30
2017-09-12T05:39:40.113Z,12.30
2017-09-12T05:42:08.429Z,12.30
2017-09-12T05:44:36.734Z,12.30
2017-09-12T05:47:05.056Z,12.40
2017-09-12T05:49:33.358Z,12.40
2017-09-12T05:52:01.679Z,12.40
2017-09-12T05:54:29.999Z,12.40
2017-09-12T05:56:58.282Z,12.40
2017-09-12T05:59:26.611Z,12.50
2017-09-12T06:01:55.708Z,12.60
2017-09-12T06:04:24.007Z,12.70
2017-09-12T06:06:52.401Z,12.80
2017-09-12T06:09:20.721Z,12.80
2017-09-12T06:11:49.077Z,12.90
2017-09-12T06:14:17.510Z,12.90
2017-09-12T06:16:52.465Z,13.00
2017-09-12T06:19:21.073Z,13.00
2017-09-12T06:21:49.404Z,13.10
2017-09-12T06:24:17.693Z,13.20
2017-09-12T06:26:46.360Z,13.30
2017-09-12T06:29:14.675Z,13.30
2017-09-12T06:31:42.984Z,13.40
2017-09-12T06:34:11.297Z,13.80
2017-09-12T06:36:39.588Z,14.00
2017-09-12T06:39:07.919Z,14.20
2017-09-12T06:41:36.232Z,14.30
2017-09-12T06:44:04.543Z,14.10
2017-09-12T06:46:32.865Z,14.10
2017-09-12T06:49:01.195Z,14.20
2017-09-12T06:51:29.495Z,14.30
2017-09-12T06:53:57.782Z,14.40
2017-09-12T06:56:26.103Z,14.70
2017-09-12T06:58:54.421Z,14.70
2017-09-12T07:01:22.715Z,14.70
2017-09-12T07:03:51.057Z,14.80
2017-09-12T07:06:19.370Z,15.20
2017-09-12T07:08:47.689Z,15.70
2017-09-12T07:11:15.976Z,16.10
2017-09-12T07:13:44.282Z,16.10
2017-09-12T07:16:12.602Z,16.40
2017-09-12T07:18:41.000Z,16.50
2017-09-12T07:21:09.290Z,16.60
2017-09-12T07:23:37.634Z,16.40
2017-09-12T07:26:10.870Z,16.10
2017-09-12T07:28:39.185Z,15.90
2017-09-12T07:31:07.512Z,15.60
2017-09-12T07:33:35.842Z,15.50
2017-09-12T07:36:04.191Z,15.40
2017-09-12T07:38:32.481Z,15.40
2017-09-12T07:41:00.823Z,15.30
2017-09-12T07:43:29.117Z,15.10
2017-09-12T07:45:57.463Z,14.90
2017-09-12T07:48:25.811Z,14.80
2017-09-12T07:50:54.350Z,14.70
2017-09-12T07:53:22.665Z,14.60
2017-09-12T07:55:50.998Z,14.60
2017-09-12T07:58:19.292Z,14.50
2017-09-12T08:00:47.584Z,14.50
2017-09-12T08:03:15.928Z,14.50
2017-09-12T08:05:44.227Z,14.50
2017-09-12T08:08:12.528Z,14.50
2017-09-12T08:10:40.873Z,14.60
2017-09-12T08:13:09.164Z,14.60
2017-09-12T08:15:37.449Z,14.70
2017-09-12T08:18:05.772Z,14.80
2017-09-12T08:20:34.085Z,14.80
2017-09-12T08:23:03.002Z,15.00
2017-09-12T08:25:32.210Z,15.00
2017-09-12T08:28:01.609Z,15.20
2017-09-12T08:30:29.909Z,15.20
2017-09-12T08:32:58.234Z,15.20
2017-09-12T08:35:26.520Z,15.10
2017-09-12T08:37:54.868Z,15.20
2017-09-12T08:40:23.178Z,15.30
2017-09-12T08:42:51.482Z,15.70
2017-09-12T08:45:20.568Z,17.10
2017-09-12T08:47:48.976Z,17.10
2017-09-12T08:50:17.265Z,17.50
2017-09-12T08:52:45.589Z,17.70
2017-09-12T08:55:13.931Z,18.10
2017-09-12T08:57:42.232Z,18.20
2017-09-12T09:00:10.578Z,18.10
2017-09-12T09:02:38.905Z,17.70
2017-09-12T09:05:07.189Z,17.40
2017-09-12T09:07:35.476Z,17.80
2017-09-12T09:10:03.801Z,18.40
2017-09-12T09:12:32.677Z,18.40
2017-09-12T09:15:00.977Z,18.60
2017-09-12T09:17:29.293Z,19.00
2017-09-12T09:19:57.648Z,19.20
2017-09-12T09:22:25.935Z,19.00
2017-09-12T09:25:32.146Z,19.10
2017-09-12T09:28:00.460Z,19.40
2017-09-12T09:30:28.852Z,20.10
2017-09-12T09:32:57.141Z,19.80
2017-09-12T09:35:25.435Z,19.30
2017-09-12T09:37:54.845Z,19.20
2017-09-12T09:40:23.906Z,19.30
2017-09-12T09:42:53.005Z,19.00
2017-09-12T09:45:21.303Z,19.00
2017-09-12T09:47:49.630Z,18.60
2017-09-12T09:50:17.964Z,18.60
2017-09-12T09:52:46.250Z,18.60
2017-09-12T09:55:15.164Z,18.70
2017-09-12T09:57:43.500Z,18.00
2017-09-12T10:00:11.998Z,17.70
2017-09-12T10:02:40.317Z,17.60
2017-09-12T10:05:08.620Z,17.50
2017-09-12T10:07:36.991Z,17.50
2017-09-12T10:10:05.280Z,17.70
2017-09-12T10:12:33.565Z,18.20
2017-09-12T10:15:02.645Z,18.60
2017-09-12T10:17:30.936Z,18.60
2017-09-12T10:19:59.270Z,18.90
2017-09-12T10:22:27.642Z,18.80
2017-09-12T10:24:55.936Z,18.60
2017-09-12T10:27:24.251Z,18.00
2017-09-12T10:29:52.598Z,17.40
2017-09-12T10:32:20.889Z,17.20
2017-09-12T10:34:49.944Z,17.00
2017-09-12T10:37:19.059Z,16.90
2017-09-12T10:39:47.460Z,16.90
2017-09-12T10:42:16.517Z,17.10
2017-09-12T10:44:46.386Z,17.90
2017-09-12T10:47:15.575Z,17.80
2017-09-12T10:49:45.294Z,18.70
2017-09-12T10:52:13.689Z,18.70
2017-09-12T10:54:42.011Z,19.00
2017-09-12T10:57:10.320Z,18.90
2017-09-12T10:59:39.417Z,19.00
2017-09-12T11:02:07.718Z,18.90
2017-09-12T11:04:36.005Z,18.60
2017-09-12T11:07:04.319Z,18.70
2017-09-12T11:09:32.621Z,19.00
2017-09-12T11:12:01.759Z,18.70
2017-09-12T11:14:30.941Z,18.80
2017-09-12T11:16:59.341Z,18.70
2017-09-12T11:19:27.666Z,18.50
2017-09-12T11:21:56.035Z,18.70
2017-09-12T11:24:24.334Z,19.00
2017-09-12T11:26:52.617Z,19.00
2017-09-12T11:29:21.716Z,18.60
2017-09-12T11:31:50.005Z,18.60
2017-09-12T11:34:18.302Z,18.60
2017-09-12T11:36:47.393Z,18.60
2017-09-12T11:39:16.202Z,18.60
2017-09-12T11:41:45.037Z,18.60
2017-09-12T11:44:13.398Z,18.60
2017-09-12T11:46:41.739Z,18.50
2017-09-12T11:49:10.117Z,18.20
2017-09-12T11:51:38.409Z,17.80
2017-09-12T11:54:07.486Z,17.80
2017-09-12T11:56:36.547Z,17.80
2017-09-12T11:59:04.910Z,17.80
2017-09-12T12:01:33.973Z,18.00
2017-09-12T12:04:02.349Z,18.00
2017-09-12T12:06:30.698Z,18.00
2017-09-12T12:08:59.002Z,18.00
2017-09-12T12:11:27.293Z,17.90
2017-09-12T12:13:55.628Z,18.20
2017-09-12T12:16:23.927Z,18.30
2017-09-12T12:18:53.191Z,18.30
2017-09-12T12:21:22.313Z,18.00
2017-09-12T12:23:50.618Z,18.00
2017-09-12T12:26:19.728Z,17.90
2017-09-12T12:28:48.047Z,17.80
2017-09-12T12:31:17.124Z,17.60
2017-09-12T12:33:46.257Z,17.70
2017-09-12T12:36:15.456Z,17.60
2017-09-12T12:38:45.564Z,18.30
2017-09-12T12:41:15.358Z,18.60
2017-09-12T12:43:43.677Z,18.60
2017-09-12T12:46:12.030Z,18.40
2017-09-12T12:48:40.342Z,18.60
2017-09-12T12:51:08.642Z,18.90
2017-09-12T12:53:36.986Z,19.20
2017-09-12T12:56:05.277Z,19.10
2017-09-12T12:58:34.336Z,18.90
2017-09-12T13:01:03.425Z,19.20
2017-09-12T13:03:31.730Z,19.20
2017-09-12T13:06:00.036Z,19.30
2017-09-12T13:08:28.355Z,19.40
2017-09-12T13:10:56.675Z,19.50
2017-09-12T13:13:24.974Z,19.80
2017-09-12T13:15:54.068Z,19.50
2017-09-12T13:18:22.414Z,19.40
2017-09-12T13:20:51.517Z,19.10
2017-09-12T13:23:19.837Z,19.00
2017-09-12T13:25:48.144Z,19.30
2017-09-12T13:28:16.517Z,19.40
2017-09-12T13:30:45.956Z,19.30
2017-09-12T13:33:14.253Z,19.30
2017-09-12T13:35:42.577Z,19.30
2017-09-12T13:38:10.877Z,19.50
2017-09-12T13:40:39.191Z,19.40
2017-09-12T13:43:07.514Z,19.30
2017-09-12T13:45:35.818Z,19.20
2017-09-12T13:48:04.913Z,19.30
2017-09-12T13:50:33.253Z,19.30
2017-09-12T13:53:02.349Z,18.90
2017-09-12T13:55:30.645Z,18.90
2017-09-12T13:57:58.963Z,18.90
2017-09-12T14:00:27.344Z,18.80
2017-09-12T14:02:55.661Z,18.70
2017-09-12T14:05:23.973Z,18.60
2017-09-12T14:07:53.056Z,18.40
2017-09-12T14:10:22.142Z,18.40
2017-09-12T14:12:50.461Z,18.40
2017-09-12T14:15:18.986Z,18.30
2017-09-12T14:17:47.308Z,18.10
2017-09-12T14:20:16.010Z,18.00
2017-09-12T14:22:45.418Z,17.90
2017-09-12T14:25:13.726Z,17.90
2017-09-12T14:27:42.831Z,18.00
2017-09-12T14:30:11.123Z,17.90
2017-09-12T14:32:39.416Z,18.10
2017-09-12T14:35:08.493Z,18.30
2017-09-12T14:37:37.593Z,18.40
2017-09-12T14:40:05.887Z,18.40
2017-09-12T14:42:34.971Z,18.30
2017-09-12T14:45:04.189Z,18.50
2017-09-12T14:47:32.545Z,18.60
2017-09-12T14:50:00.856Z,18.80
2017-09-12T14:52:29.147Z,18.90
2017-09-12T14:54:58.215Z,18.70
2017-09-12T14:57:27.312Z,18.70
2017-09-12T14:59:55.641Z,18.70
2017-09-12T15:02:24.694Z,18.60
2017-09-12T15:04:53.032Z,18.60
2017-09-12T15:07:21.498Z,18.60
2017-09-12T15:09:49.823Z,18.60
2017-09-12T15:12:18.154Z,18.50
2017-09-12T15:14:46.434Z,18.40
2017-09-12T15:17:15.489Z,18.30
2017-09-12T15:19:44.576Z,18.20
2017-09-12T15:22:12.872Z,18.20
2017-09-12T15:24:41.162Z,18.10
2017-09-12T15:27:10.234Z,18.00
2017-09-12T15:29:38.565Z,18.00
2017-09-12T15:32:06.888Z,18.00
2017-09-12T15:34:35.205Z,17.90
2017-09-12T15:37:04.303Z,18.00
2017-09-12T15:39:32.611Z,17.90
2017-09-12T15:42:00.909Z,18.00
2017-09-12T15:44:29.343Z,17.90
2017-09-12T15:46:58.485Z,17.80
2017-09-12T15:49:26.818Z,17.80
2017-09-12T15:51:55.129Z,17.60
2017-09-12T15:54:23.452Z,17.40
2017-09-12T15:56:51.759Z,17.20
2017-09-12T15:59:20.093Z,16.80
2017-09-12T16:01:49.169Z,16.30
2017-09-12T16:04:18.271Z,15.80
2017-09-12T16:06:46.569Z,15.70
2017-09-12T16:09:15.634Z,14.90
2017-09-12T16:11:44.730Z,14.70
2017-09-12T16:14:13.789Z,14.60
2017-09-12T16:16:42.871Z,14.60
2017-09-12T16:19:11.198Z,14.60
2017-09-12T16:21:40.457Z,14.60
2017-09-12T16:24:09.562Z,14.60
2017-09-12T16:26:39.282Z,14.80
2017-09-12T16:29:08.377Z,14.70
2017-09-12T16:31:36.737Z,14.70
2017-09-12T16:34:05.029Z,14.90
2017-09-12T16:36:33.362Z,14.90
2017-09-12T16:39:01.653Z,14.90
2017-09-12T16:41:29.941Z,14.70
2017-09-12T16:43:58.262Z,14.60
2017-09-12T16:46:26.549Z,14.50
2017-09-12T16:48:54.845Z,14.30
2017-09-12T16:51:23.938Z,14.30
2017-09-12T16:53:52.225Z,14.30
2017-09-12T16:56:20.535Z,14.40
2017-09-12T16:58:48.848Z,14.40
2017-09-12T17:01:17.183Z,14.30
2017-09-12T17:03:59.516Z,14.30
2017-09-12T17:06:28.982Z,14.30
2017-09-12T17:08:57.399Z,14.30
2017-09-12T17:11:25.788Z,14.20
2017-09-12T17:13:54.096Z,14.20
2017-09-12T17:16:22.405Z,14.10
2017-09-12T17:18:51.637Z,14.00
2017-09-12T17:21:20.013Z,14.00
2017-09-12T17:23:48.296Z,14.00
2017-09-12T17:26:16.592Z,13.90
2017-09-12T17:28:44.903Z,13.80
2017-09-12T17:31:13.336Z,13.80
2017-09-12T17:33:41.611Z,13.70
2017-09-12T17:36:09.910Z,13.70
2017-09-12T17:38:38.215Z,13.80
2017-09-12T17:41:06.535Z,13.80
2017-09-12T17:43:34.847Z,13.70
2017-09-12T17:46:03.140Z,13.60
2017-09-12T17:48:31.429Z,13.50
2017-09-12T17:50:59.786Z,13.50
2017-09-12T17:53:28.149Z,13.40
2017-09-12T17:55:57.258Z,13.20
2017-09-12T17:58:25.679Z,13.20
2017-09-12T18:00:53.994Z,13.10
2017-09-12T18:03:23.128Z,13.00
2017-09-12T18:05:51.453Z,13.00
2017-09-12T18:08:19.945Z,12.90
2017-09-12T18:10:48.287Z,12.90
2017-09-12T18:13:18.036Z,12.80
2017-09-12T18:15:47.820Z,12.60
2017-09-12T18:18:17.031Z,12.60
2017-09-12T18:20:45.605Z,12.60
2017-09-12T18:23:13.927Z,12.60
2017-09-12T18:25:42.212Z,12.60
2017-09-12T18:28:10.545Z,12.70
2017-09-12T18:30:38.829Z,12.70
2017-09-12T18:33:07.171Z,12.70
2017-09-12T18:35:35.448Z,12.70
2017-09-12T18:38:04.526Z,12.70
2017-09-12T18:40:32.859Z,12.70
2017-09-12T18:43:01.202Z,12.80
2017-09-12T18:45:29.547Z,12.90
2017-09-12T18:47:58.626Z,13.00
2017-09-12T18:50:26.911Z,13.00
2017-09-12T18:52:55.265Z,13.00
2017-09-12T18:55:23.627Z,13.00
2017-09-12T18:57:51.908Z,13.00
2017-09-12T19:00:21.014Z,12.90
2017-09-12T19:02:49.468Z,12.90
2017-09-12T19:05:17.782Z,12.90
2017-09-12T19:07:46.117Z,12.80
2017-09-12T19:10:15.389Z,12.90
2017-09-12T19:12:43.713Z,12.90
2017-09-12T19:15:12.027Z,13.00
2017-09-12T19:17:40.310Z,13.10
2017-09-12T19:20:08.627Z,13.20
2017-09-12T19:22:37.937Z,13.30
2017-09-12T19:25:06.243Z,13.40
2017-09-12T19:27:34.547Z,13.40
2017-09-12T19:30:02.885Z,13.40
2017-09-12T19:32:33.219Z,13.50
2017-09-12T19:35:01.555Z,13.50
2017-09-12T19:37:31.442Z,13.40
2017-09-12T19:40:04.219Z,13.40
2017-09-12T19:42:33.305Z,13.40
2017-09-12T19:45:01.651Z,13.30
2017-09-12T19:47:29.935Z,13.30
2017-09-12T19:49:59.063Z,13.20
2017-09-12T19:52:28.386Z,13.20
2017-09-12T19:54:56.713Z,13.20
2017-09-12T19:57:25.156Z,13.30
2017-09-12T19:59:53.451Z,13.30
2017-09-12T20:02:21.799Z,13.30
2017-09-12T20:04:50.132Z,13.30
2017-09-12T20:07:18.451Z,13.30
2017-09-12T20:09:49.493Z,13.40
2017-09-12T20:12:17.776Z,13.30
2017-09-12T20:14:46.124Z,13.40
2017-09-12T20:17:14.429Z,13.30
2017-09-12T20:19:42.715Z,13.30
2017-09-12T20:22:11.069Z,13.30
2017-09-12T20:24:39.371Z,13.30
2017-09-12T20:27:08.972Z,13.20
2017-09-12T20:29:38.046Z,13.10
2017-09-12T20:32:08.017Z,13.10
2017-09-12T20:34:36.929Z,13.10
2017-09-12T20:37:08.658Z,13.10
2017-09-12T20:39:36.988Z,13.10
2017-09-12T20:42:05.304Z,13.20
2017-09-12T20:44:33.643Z,13.10
2017-09-12T20:47:02.753Z,13.10
2017-09-12T20:49:31.062Z,13.10
2017-09-12T20:51:59.427Z,13.10
2017-09-12T20:54:27.725Z,13.10
2017-09-12T20:56:56.034Z,13.10
2017-09-12T20:59:25.209Z,13.00
2017-09-12T21:01:53.509Z,13.00
2017-09-12T21:04:21.801Z,13.00
2017-09-12T21:06:50.129Z,12.90
2017-09-12T21:09:18.450Z,12.90
2017-09-12T21:11:47.747Z,12.90
2017-09-12T21:14:16.098Z,13.00
2017-09-12T21:16:44.412Z,13.00
2017-09-12T21:19:12.884Z,13.00
2017-09-12T21:21:41.166Z,13.10
2017-09-12T21:24:09.447Z,13.00
2017-09-12T21:26:38.520Z,13.00
2017-09-12T21:29:07.576Z,13.00
2017-09-12T21:31:35.886Z,13.00
2017-09-12T21:34:04.244Z,13.00
2017-09-12T21:36:32.555Z,12.90
2017-09-12T21:39:00.865Z,12.90
2017-09-12T21:41:29.931Z,12.90
2017-09-12T21:43:59.025Z,12.90
2017-09-12T21:46:27.360Z,12.90
2017-09-12T21:48:56.455Z,12.80
2017-09-12T21:51:25.924Z,12.80
2017-09-12T21:53:55.087Z,12.80
2017-09-12T21:56:25.213Z,12.80
2017-09-12T21:58:53.551Z,12.90
2017-09-12T22:01:21.853Z,12.80
2017-09-12T22:03:50.942Z,12.80
2017-09-12T22:06:20.036Z,12.70
2017-09-12T22:08:48.343Z,13.10
2017-09-12T22:11:16.720Z,12.70
2017-09-12T22:13:45.956Z,12.70
2017-09-12T22:16:14.262Z,12.60
2017-09-12T22:18:42.600Z,12.50
2017-09-12T22:21:10.907Z,12.50
2017-09-12T22:23:39.187Z,12.50
2017-09-12T22:26:08.262Z,12.50
2017-09-12T22:28:39.263Z,12.50
2017-09-12T22:31:07.588Z,12.50
2017-09-12T22:33:35.892Z,12.50
2017-09-12T22:36:05.183Z,12.50
2017-09-12T22:38:33.487Z,12.50
2017-09-12T22:41:01.787Z,12.50
2017-09-12T22:43:30.141Z,12.40
2017-09-12T22:45:58.435Z,12.40
2017-09-12T22:48:26.718Z,12.40
2017-09-12T22:50:55.020Z,12.30
2017-09-12T22:53:23.334Z,12.30
2017-09-12T22:55:51.691Z,12.40
2017-09-12T22:58:19.982Z,12.30
2017-09-12T23:00:48.293Z,12.30
2017-09-12T23:03:16.586Z,12.20
2017-09-12T23:05:44.953Z,12.20
2017-09-12T23:08:13.238Z,12.30
2017-09-12T23:10:41.519Z,12.30
2017-09-12T23:13:09.831Z,12.30
2017-09-12T23:15:38.159Z,12.30
2017-09-12T23:18:06.435Z,12.30
2017-09-12T23:20:35.491Z,12.20
2017-09-12T23:23:04.575Z,12.20
2017-09-12T23:25:32.928Z,12.10
2017-09-12T23:28:01.207Z,12.20
2017-09-12T23:30:29.506Z,12.10
2017-09-12T23:32:57.833Z,12.10
2017-09-12T23:35:26.928Z,12.00
2017-09-12T23:37:55.211Z,12.00
2017-09-12T23:40:23.520Z,12.00
2017-09-12T23:42:53.212Z,11.90
2017-09-12T23:45:32.409Z,11.90
2017-09-12T23:48:00.735Z,11.90
2017-09-12T23:50:29.035Z,11.90
2017-09-12T23:52:57.390Z,11.80
2017-09-12T23:55:25.713Z,11.80
2017-09-12T23:57:54.639Z,11.80
